Keret — UAEH — position and weather

sailwx.info

Track history (hours):
 
Tides and Currents Weather Stations Pressure Air Temp Water Temp Dewpoint Dewpoint Depression Visibility Wind Speed Wind Dir Waves Ship Positions

Keret

Last reported at 2015-May-23 18:10 UTC. Time now 2015-May-25 03:13 UTC.
Position N 50°16' W 001°24'.

Length 82 m; draft 4.3 m.

Type: Cargo ship. MMSI: 273333000.

Date/timePositionNaut miles runAvg speedWind from/ knotsBaromVisibWave heightAir tempDewpointWater temp
2015-May-23 18:10N 50°16' W 001°24'7110.2
2015-May-23 11:14N 50°36' E 000°23'6 9.2
2015-May-23 10:32N 50°38' E 000°32'1010.5
2015-May-23 09:33N 50°44' E 000°46'2711.4
2015-May-23 07:14N 51°00' E 001°19'710.6
2015-May-23 06:34N 51°05' E 001°28'9 8.8
2015-May-23 05:33N 51°10' E 001°39'8 7.9
2015-May-23 04:34N 51°17' E 001°47'8 8.1
2015-May-23 03:34N 51°24' E 001°51'9 8.7
2015-May-23 02:33N 51°32' E 001°57'10 9.9
2015-May-23 01:33N 51°41' E 002°03'2210.9
2015-May-22 23:30N 52°03' E 002°09'2311.1
2015-May-22 21:24N 52°26' E 002°01'910.4
2015-May-22 20:33N 52°35' E 001°58'9 9.4
2015-May-22 19:33N 52°44' E 001°54'9 8.8
2015-May-22 18:33N 52°49' E 001°42'8 7.9
2015-May-22 17:33N 52°54' E 001°32'7 7.4
2015-May-22 16:34N 52°58' E 001°21'  
2015-May-17 03:33N 53°29' E 004°44'8 7.9
2015-May-17 02:33N 53°32' E 004°56'9 9.0
2015-May-17 01:31N 53°35' E 005°11'10 9.7
2015-May-17 00:31N 53°39' E 005°26'9 9.5
2015-May-16 23:33N 53°42' E 005°41'11 9.2
2015-May-16 22:20N 53°46' E 005°59'52 7.6
2015-May-16 15:31N 53°60' E 007°23'9 9.2
2015-May-16 14:33N 54°02' E 007°38'10 9.6
2015-May-16 13:33N 54°03' E 007°54'2610.8
2015-May-16 11:10N 53°58' E 008°37'3 4.5
2015-May-16 10:33N 53°56' E 008°41'7 6.9
2015-May-16 09:33N 53°51' E 008°48'7 6.7
2015-May-16 08:33N 53°51' E 008°60'6 5.7
2015-May-16 07:33N 53°54' E 009°09'2 2.5
2015-May-16 06:33N 53°55' E 009°12'8 8.0
2015-May-16 05:33N 54°02' E 009°18'9 6.5
2015-May-16 04:10N 54°10' E 009°26'5 8.8
2015-May-16 03:33N 54°12' E 009°34'8 7.7
2015-May-16 02:33N 54°18' E 009°43'4 4.0
2015-May-16 01:33N 54°21' E 009°47'7 7.2
2015-May-16 00:33N 54°21' E 009°59'6 5.6
2015-May-15 23:33N 54°22' E 010°09'3 2.8
2015-May-15 22:33N 54°24' E 010°12'10 9.0
2015-May-15 21:30N 54°31' E 010°23'22 9.0
2015-May-15 19:05N 54°36' E 010°60'5 9.3
2015-May-15 18:33N 54°36' E 011°08'10 9.5
2015-May-15 17:33N 54°33' E 011°23'9 9.3
2015-May-15 16:33N 54°29' E 011°38'9 9.4
2015-May-15 15:33N 54°27' E 011°54'9 9.0
2015-May-15 14:32N 54°28' E 012°10'9 9.5
2015-May-15 13:33N 54°37' E 012°16'9 9.0
2015-May-15 12:33N 54°42' E 012°29'38 9.5
2015-May-15 08:33N 54°57' E 013°29'14 9.9
2015-May-15 07:11N 55°02' E 013°51'8 9.8
2015-May-15 06:24N 55°05' E 014°03'8 9.5
2015-May-15 05:32N 55°11' E 014°13'10 9.7
2015-May-15 04:33N 55°18' E 014°24'10 9.9
2015-May-15 03:33N 55°26' E 014°35'10 9.7
2015-May-15 02:33N 55°31' E 014°50'10 9.5
2015-May-15 01:33N 55°36' E 015°04'14 9.9
2015-May-15 00:11N 55°42' E 015°25'7 9.8
2015-May-14 23:25N 55°46' E 015°37'  
Track history (hours):
 
Tides and Currents Weather Stations Pressure Air Temp Water Temp Dewpoint Dewpoint Depression Visibility Wind Speed Wind Dir Waves Ship Positions

Keret

Last reported at 2015-May-23 18:10 UTC. Time now 2015-May-25 03:13 UTC.
Position N 50°16' W 001°24'.

Length 82 m; draft 4.3 m.

Type: Cargo ship. MMSI: 273333000.

Date/timePositionNaut miles runAvg speedWind from/ knotsBaromVisibWave heightAir tempDewpointWater temp
2015-May-23 18:10N 50°16' W 001°24'7110.2
2015-May-23 11:14N 50°36' E 000°23'6 9.2
2015-May-23 10:32N 50°38' E 000°32'1010.5
2015-May-23 09:33N 50°44' E 000°46'2711.4
2015-May-23 07:14N 51°00' E 001°19'710.6
2015-May-23 06:34N 51°05' E 001°28'9 8.8
2015-May-23 05:33N 51°10' E 001°39'8 7.9
2015-May-23 04:34N 51°17' E 001°47'8 8.1
2015-May-23 03:34N 51°24' E 001°51'9 8.7
2015-May-23 02:33N 51°32' E 001°57'10 9.9
2015-May-23 01:33N 51°41' E 002°03'2210.9
2015-May-22 23:30N 52°03' E 002°09'2311.1
2015-May-22 21:24N 52°26' E 002°01'910.4
2015-May-22 20:33N 52°35' E 001°58'9 9.4
2015-May-22 19:33N 52°44' E 001°54'9 8.8
2015-May-22 18:33N 52°49' E 001°42'8 7.9
2015-May-22 17:33N 52°54' E 001°32'7 7.4
2015-May-22 16:34N 52°58' E 001°21'  
2015-May-17 03:33N 53°29' E 004°44'8 7.9
2015-May-17 02:33N 53°32' E 004°56'9 9.0
2015-May-17 01:31N 53°35' E 005°11'10 9.7
2015-May-17 00:31N 53°39' E 005°26'9 9.5
2015-May-16 23:33N 53°42' E 005°41'11 9.2
2015-May-16 22:20N 53°46' E 005°59'52 7.6
2015-May-16 15:31N 53°60' E 007°23'9 9.2
2015-May-16 14:33N 54°02' E 007°38'10 9.6
2015-May-16 13:33N 54°03' E 007°54'2610.8
2015-May-16 11:10N 53°58' E 008°37'3 4.5
2015-May-16 10:33N 53°56' E 008°41'7 6.9
2015-May-16 09:33N 53°51' E 008°48'7 6.7
2015-May-16 08:33N 53°51' E 008°60'6 5.7
2015-May-16 07:33N 53°54' E 009°09'2 2.5
2015-May-16 06:33N 53°55' E 009°12'8 8.0
2015-May-16 05:33N 54°02' E 009°18'9 6.5
2015-May-16 04:10N 54°10' E 009°26'5 8.8
2015-May-16 03:33N 54°12' E 009°34'8 7.7
2015-May-16 02:33N 54°18' E 009°43'4 4.0
2015-May-16 01:33N 54°21' E 009°47'7 7.2
2015-May-16 00:33N 54°21' E 009°59'6 5.6
2015-May-15 23:33N 54°22' E 010°09'3 2.8
2015-May-15 22:33N 54°24' E 010°12'10 9.0
2015-May-15 21:30N 54°31' E 010°23'22 9.0
2015-May-15 19:05N 54°36' E 010°60'5 9.3
2015-May-15 18:33N 54°36' E 011°08'10 9.5
2015-May-15 17:33N 54°33' E 011°23'9 9.3
2015-May-15 16:33N 54°29' E 011°38'9 9.4
2015-May-15 15:33N 54°27' E 011°54'9 9.0
2015-May-15 14:32N 54°28' E 012°10'9 9.5
2015-May-15 13:33N 54°37' E 012°16'9 9.0
2015-May-15 12:33N 54°42' E 012°29'38 9.5
2015-May-15 08:33N 54°57' E 013°29'14 9.9
2015-May-15 07:11N 55°02' E 013°51'8 9.8
2015-May-15 06:24N 55°05' E 014°03'8 9.5
2015-May-15 05:32N 55°11' E 014°13'10 9.7
2015-May-15 04:33N 55°18' E 014°24'10 9.9
2015-May-15 03:33N 55°26' E 014°35'10 9.7
2015-May-15 02:33N 55°31' E 014°50'10 9.5
2015-May-15 01:33N 55°36' E 015°04'14 9.9
2015-May-15 00:11N 55°42' E 015°25'7 9.8
2015-May-14 23:25N 55°46' E 015°37'  

Dump ship's entire track history